Time;durP1;ratioP1;P1;durP2;ratioP2;P2;SDS_P1;SDS_P2;PMS_P1;PMS_P2;Temp;Humidity;BMP_temperature;BMP_pressure;BME280_temperature;BME280_humidity;BME280_pressure;Samples;Min_cycle;Max_cycle;Signal;HPM_P1;HPM_P2
2023/10/15 00:00:28;;;;;;;12.13;1.20;;;;;;;8.01;100.00;101169.09;6277903;28;20055;-71
2023/10/15 00:03:29;;;;;;;7.53;1.23;;;;;;;7.98;100.00;101166.59;6278121;28;20049;-71
2023/10/15 00:06:32;;;;;;;12.68;1.65;;;;;;;7.97;100.00;101172.72;6278200;28;20052;-70
2023/10/15 00:09:33;;;;;;;5.85;0.75;;;;;;;7.92;100.00;101174.66;6277671;28;20348;-70
2023/10/15 00:12:35;;;;;;;8.65;1.50;;;;;;;7.82;100.00;101175.91;6278052;28;20349;-71
2023/10/15 00:15:39;;;;;;;5.53;1.25;;;;;;;7.89;100.00;101180.84;6277721;28;20045;-70
2023/10/15 00:18:42;;;;;;;3.80;0.90;;;;;;;7.94;100.00;101183.31;6277874;28;20041;-71
2023/10/15 00:21:45;;;;;;;4.28;0.90;;;;;;;7.92;100.00;101186.91;6277285;28;20331;-71
2023/10/15 00:24:46;;;;;;;3.55;1.10;;;;;;;7.93;100.00;101192.06;6277973;28;20079;-71
2023/10/15 00:27:52;;;;;;;5.70;1.60;;;;;;;7.97;100.00;101185.81;6277987;28;20326;-71
2023/10/15 00:30:54;;;;;;;6.65;0.88;;;;;;;7.77;100.00;101189.16;6277192;28;20049;-71
2023/10/15 00:33:55;;;;;;;4.13;1.33;;;;;;;7.80;100.00;101182.94;6277333;28;20053;-70
2023/10/15 00:36:58;;;;;;;2.25;0.82;;;;;;;7.69;100.00;101183.31;6277563;28;20468;-71
2023/10/15 00:39:59;;;;;;;9.63;1.23;;;;;;;7.78;100.00;101187.38;6277146;28;20045;-71
2023/10/15 00:43:01;;;;;;;7.53;1.65;;;;;;;7.79;100.00;101182.09;6277014;28;20049;-71
2023/10/15 00:46:09;;;;;;;10.73;2.03;;;;;;;7.79;100.00;101183.84;6277124;28;20053;-71
2023/10/15 00:49:13;;;;;;;11.53;1.70;;;;;;;7.77;100.00;101186.53;6276847;28;20080;-71
2023/10/15 00:52:16;;;;;;;9.38;1.02;;;;;;;7.71;100.00;101191.94;6276876;28;20049;-71
2023/10/15 00:55:19;;;;;;;4.32;1.00;;;;;;;7.69;100.00;101188.53;6276852;28;20365;-71
2023/10/15 00:58:32;;;;;;;7.97;1.55;;;;;;;7.73;100.00;101182.31;6276953;28;20049;-71
2023/10/15 01:01:34;;;;;;;10.00;1.35;;;;;;;7.67;100.00;101179.88;6276394;28;20053;-71
2023/10/15 01:04:36;;;;;;;3.70;1.05;;;;;;;7.61;100.00;101180.94;6276691;28;20515;-71
2023/10/15 01:07:46;;;;;;;5.55;1.65;;;;;;;7.61;100.00;101183.56;6276480;28;20049;-71
2023/10/15 01:10:53;;;;;;;4.45;0.82;;;;;;;7.61;100.00;101177.50;6276321;28;20048;-70
2023/10/15 01:13:55;;;;;;;6.93;1.45;;;;;;;7.70;100.00;101171.09;6276460;28;20056;-74
2023/10/15 01:16:56;;;;;;;7.22;1.05;;;;;;;7.72;100.00;101177.09;6276380;28;20442;-71
2023/10/15 01:19:58;;;;;;;8.52;1.42;;;;;;;7.78;100.00;101171.69;6276104;28;20052;-71
2023/10/15 01:23:01;;;;;;;8.30;1.30;;;;;;;7.71;100.00;101171.03;6276215;28;20049;-71
2023/10/15 01:26:16;;;;;;;3.97;1.45;;;;;;;7.67;100.00;101163.34;6276174;28;20060;-70
2023/10/15 01:29:21;;;;;;;6.40;1.30;;;;;;;7.74;100.00;101165.69;6275942;28;20448;-71
2023/10/15 01:32:22;;;;;;;6.60;1.00;;;;;;;7.71;100.00;101160.56;6275809;28;20049;-71
2023/10/15 01:35:24;;;;;;;3.00;1.00;;;;;;;7.73;100.00;101166.63;6276231;28;20061;-70
2023/10/15 01:38:27;;;;;;;7.32;1.23;;;;;;;7.73;100.00;101163.16;6275793;28;20545;-71
2023/10/15 01:41:31;;;;;;;6.97;0.90;;;;;;;7.66;100.00;101167.72;6275738;28;20483;-72
2023/10/15 01:44:33;;;;;;;6.88;1.15;;;;;;;7.66;100.00;101157.25;6275324;28;20056;-71
2023/10/15 01:47:36;;;;;;;5.28;0.90;;;;;;;7.73;100.00;101163.16;6275595;28;20053;-72
2023/10/15 01:50:45;;;;;;;5.88;0.90;;;;;;;7.70;100.00;101163.25;6275396;28;20055;-71
2023/10/15 01:53:47;;;;;;;8.82;1.40;;;;;;;7.63;100.00;101168.69;6275646;28;20430;-70
2023/10/15 01:56:50;;;;;;;9.70;0.90;;;;;;;7.59;100.00;101156.63;6275862;28;20099;-71
2023/10/15 02:00:04;;;;;;;5.70;0.95;;;;;;;7.65;100.00;101158.16;6275287;28;20056;-71
2023/10/15 02:03:06;;;;;;;6.78;1.23;;;;;;;7.58;100.00;101162.75;6275403;28;20349;-71
2023/10/15 02:06:08;;;;;;;6.63;1.10;;;;;;;7.65;100.00;101165.16;6275378;28;20357;-71
2023/10/15 02:09:12;;;;;;;6.03;1.00;;;;;;;7.65;100.00;101159.94;6275358;28;20049;-70
2023/10/15 02:12:18;;;;;;;6.32;0.95;;;;;;;7.54;100.00;101161.16;6275138;28;20059;-73
2023/10/15 02:15:23;;;;;;;6.45;0.95;;;;;;;7.52;100.00;101155.13;6275432;28;20429;-70
2023/10/15 02:18:29;;;;;;;8.63;1.05;;;;;;;7.59;100.00;101159.25;6275283;28;20429;-70
2023/10/15 02:21:37;;;;;;;9.70;0.98;;;;;;;7.68;100.00;101159.84;6274921;28;20453;-71
2023/10/15 02:24:38;;;;;;;3.97;1.00;;;;;;;7.64;100.00;101159.09;6275241;28;20049;-71
2023/10/15 02:27:41;;;;;;;6.40;1.02;;;;;;;7.59;100.00;101161.00;6274445;28;20381;-71
2023/10/15 02:30:46;;;;;;;5.78;1.33;;;;;;;7.39;100.00;101153.81;6274892;28;20045;-70
2023/10/15 02:33:48;;;;;;;2.70;1.00;;;;;;;7.47;100.00;101158.81;6275174;28;20045;-73
2023/10/15 02:36:49;;;;;;;1.83;0.63;;;;;;;7.49;100.00;101163.06;6275097;28;20057;-72
2023/10/15 02:39:51;;;;;;;6.38;1.08;;;;;;;7.50;100.00;101151.72;6275046;28;20056;-71
2023/10/15 02:42:53;;;;;;;6.00;2.33;;;;;;;7.43;100.00;101160.66;6274918;28;20045;-73
2023/10/15 02:46:00;;;;;;;8.30;0.85;;;;;;;7.26;100.00;101150.75;6275294;28;20052;-72
2023/10/15 02:49:01;;;;;;;6.80;0.70;;;;;;;7.23;100.00;101163.94;6274824;28;20049;-73
2023/10/15 02:52:10;;;;;;;3.30;0.98;;;;;;;7.19;100.00;101164.94;6274991;28;20045;-73
2023/10/15 02:55:14;;;;;;;4.45;0.73;;;;;;;7.37;100.00;101153.88;6274913;28;20345;-72
2023/10/15 02:58:17;;;;;;;5.72;0.82;;;;;;;7.43;100.00;101158.03;6279394;28;20049;-72
2023/10/15 03:01:19;;;;;;;2.95;0.75;;;;;;;7.45;100.00;101156.25;6279432;28;20041;-72
2023/10/15 03:04:32;;;;;;;5.05;0.65;;;;;;;7.43;100.00;101178.09;6279771;28;20060;-71
2023/10/15 03:07:34;;;;;;;3.70;0.50;;;;;;;7.45;100.00;101165.81;6279929;28;20108;-73
2023/10/15 03:10:46;;;;;;;7.22;0.75;;;;;;;7.51;100.00;101171.72;6279222;28;20057;-72
2023/10/15 03:13:53;;;;;;;2.67;0.60;;;;;;;7.43;100.00;101168.50;6279495;28;20052;-73
2023/10/15 03:16:56;;;;;;;6.80;1.33;;;;;;;7.27;100.00;101169.94;6279677;28;20242;-72
2023/10/15 03:20:10;;;;;;;3.42;0.60;;;;;;;7.41;100.00;101166.88;6278833;28;20088;-72
2023/10/15 03:23:16;;;;;;;3.55;0.60;;;;;;;7.40;100.00;101175.59;6279351;28;20052;-73
2023/10/15 03:26:21;;;;;;;0.65;0.30;;;;;;;7.26;100.00;101174.28;6279301;28;20045;-72
2023/10/15 03:29:23;;;;;;;0.47;0.35;;;;;;;7.40;100.00;101168.59;6279072;28;20437;-72
2023/10/15 03:32:31;;;;;;;2.42;0.57;;;;;;;7.42;100.00;101166.78;6278666;28;20103;-72
2023/10/15 03:35:37;;;;;;;7.55;0.52;;;;;;;7.44;100.00;101180.66;6279076;28;20048;-72
2023/10/15 03:38:38;;;;;;;4.35;0.65;;;;;;;7.38;100.00;101173.88;6278807;28;20059;-72
2023/10/15 03:41:40;;;;;;;1.10;0.85;;;;;;;7.37;100.00;101182.63;6278253;28;20045;-72
2023/10/15 03:44:44;;;;;;;4.90;0.77;;;;;;;7.41;100.00;101180.78;6278767;28;20060;-72
2023/10/15 03:47:47;;;;;;;2.88;0.80;;;;;;;7.45;100.00;101184.13;6278771;28;20049;-72
2023/10/15 03:50:54;;;;;;;1.38;0.60;;;;;;;7.47;100.00;101192.78;6278188;28;20040;-73
2023/10/15 03:53:59;;;;;;;6.07;0.50;;;;;;;7.40;100.00;101192.13;6278445;28;20366;-72
2023/10/15 03:57:08;;;;;;;1.08;0.65;;;;;;;7.24;100.00;101201.38;6278444;28;20057;-72
2023/10/15 04:00:16;;;;;;;2.90;0.40;;;;;;;7.28;100.00;101200.41;6278385;28;20486;-72
2023/10/15 04:03:23;;;;;;;1.25;0.30;;;;;;;7.34;100.00;101193.19;6278185;28;20132;-72
2023/10/15 04:06:24;;;;;;;1.02;0.40;;;;;;;7.32;100.00;101188.94;6277476;28;20477;-72
2023/10/15 04:09:26;;;;;;;1.38;0.43;;;;;;;7.39;100.00;101193.03;6277858;28;20049;-72
2023/10/15 04:12:28;;;;;;;2.53;1.08;;;;;;;7.38;100.00;101193.94;6277723;28;20053;-72
2023/10/15 04:15:31;;;;;;;2.92;0.52;;;;;;;7.30;100.00;101186.34;6277978;28;20053;-70
2023/10/15 04:18:33;;;;;;;0.85;0.25;;;;;;;7.14;100.00;101187.75;6277807;28;20079;-70
2023/10/15 04:21:38;;;;;;;1.55;0.20;;;;;;;7.20;100.00;101192.78;6277643;28;20045;-70
2023/10/15 04:24:41;;;;;;;4.75;0.30;;;;;;;7.09;100.00;101192.28;6277771;28;20085;-70
2023/10/15 04:27:42;;;;;;;1.48;0.55;;;;;;;7.05;100.00;101190.66;6277781;28;20049;-72
2023/10/15 04:30:46;;;;;;;1.10;0.40;;;;;;;7.15;100.00;101186.84;6276894;28;20345;-71
2023/10/15 04:33:50;;;;;;;2.92;0.30;;;;;;;7.14;100.00;101197.38;6299224;22;20375;-70
2023/10/15 04:36:52;;;;;;;0.57;0.20;;;;;;;7.07;100.00;101201.91;6277458;28;20060;-70
2023/10/15 04:39:55;;;;;;;2.58;0.30;;;;;;;7.12;100.00;101189.56;6276955;28;20052;-70
2023/10/15 04:42:59;;;;;;;3.00;0.40;;;;;;;7.11;100.00;101191.31;6277310;28;20060;-70
2023/10/15 04:46:02;;;;;;;5.97;0.40;;;;;;;7.14;100.00;101194.75;6277072;28;20053;-70
2023/10/15 04:49:07;;;;;;;0.70;0.25;;;;;;;7.22;100.00;101193.59;6277321;28;20045;-70
2023/10/15 04:52:14;;;;;;;1.15;0.35;;;;;;;7.27;100.00;101194.31;6276721;28;20045;-70
2023/10/15 04:55:17;;;;;;;2.85;1.00;;;;;;;7.21;100.00;101183.19;6277131;28;20056;-71
2023/10/15 04:58:18;;;;;;;1.17;0.25;;;;;;;7.19;100.00;101188.47;6276800;28;20354;-70
2023/10/15 05:01:23;;;;;;;3.10;0.32;;;;;;;7.21;100.00;101191.03;6276688;28;20052;-70
2023/10/15 05:04:25;;;;;;;3.42;0.50;;;;;;;7.15;100.00;101193.84;6276733;28;20131;-70
2023/10/15 05:07:26;;;;;;;2.00;0.55;;;;;;;7.10;100.00;101196.59;6276871;28;20053;-70
2023/10/15 05:10:29;;;;;;;1.52;0.38;;;;;;;7.05;100.00;101190.66;6276308;28;20170;-70
2023/10/15 05:13:31;;;;;;;2.05;0.40;;;;;;;7.08;100.00;101178.34;6276296;28;20327;-70
2023/10/15 05:16:35;;;;;;;5.57;0.57;;;;;;;7.06;100.00;101176.69;6276463;28;20056;-70
2023/10/15 05:19:37;;;;;;;1.98;0.45;;;;;;;7.03;100.00;101174.16;6275457;28;20349;-70
2023/10/15 05:22:38;;;;;;;3.15;0.45;;;;;;;7.04;100.00;101176.75;6276205;28;20049;-70
2023/10/15 05:25:40;;;;;;;1.98;0.40;;;;;;;6.94;100.00;101177.94;6276208;28;20079;-70
2023/10/15 05:28:41;;;;;;;1.65;0.30;;;;;;;6.87;100.00;101168.59;6276296;28;20053;-70
2023/10/15 05:31:44;;;;;;;4.90;0.35;;;;;;;6.84;100.00;101168.66;6275517;28;20052;-70
2023/10/15 05:34:46;;;;;;;0.10;0.10;;;;;;;6.84;100.00;101174.75;6276225;28;20055;-70
2023/10/15 05:37:48;;;;;;;3.30;0.35;;;;;;;6.81;100.00;101176.59;6275844;28;20361;-71
2023/10/15 05:40:57;;;;;;;4.10;0.50;;;;;;;6.84;100.00;101171.28;6275829;28;20045;-71
2023/10/15 05:43:58;;;;;;;2.75;0.45;;;;;;;6.75;100.00;101193.31;6275856;28;20060;-70
2023/10/15 05:47:01;;;;;;;1.50;0.50;;;;;;;6.78;100.00;101192.38;6275716;28;20052;-70
2023/10/15 05:50:04;;;;;;;0.32;0.30;;;;;;;6.81;100.00;101203.59;6275467;28;20052;-70
2023/10/15 05:53:06;;;;;;;1.38;0.30;;;;;;;6.78;100.00;101203.69;6275533;28;20434;-70
2023/10/15 05:56:07;;;;;;;0.45;0.43;;;;;;;6.77;100.00;101203.75;6275695;28;20102;-70
2023/10/15 05:59:09;;;;;;;1.98;0.43;;;;;;;6.78;100.00;101214.13;6275304;28;20075;-70
2023/10/15 06:02:11;;;;;;;1.48;0.35;;;;;;;6.61;100.00;101211.16;6275175;28;20456;-71
2023/10/15 06:05:14;;;;;;;1.52;0.30;;;;;;;6.56;100.00;101208.69;6275501;28;20093;-70
2023/10/15 06:08:15;;;;;;;3.22;0.40;;;;;;;6.51;100.00;101222.78;6275441;28;20098;-70
2023/10/15 06:11:17;;;;;;;1.20;0.30;;;;;;;6.60;100.00;101225.13;6274902;28;20052;-70
2023/10/15 06:14:18;;;;;;;5.50;0.45;;;;;;;6.61;100.00;101232.03;6275448;28;20040;-70
2023/10/15 06:17:21;;;;;;;0.85;0.60;;;;;;;6.40;100.00;101223.06;6275348;28;20049;-71
2023/10/15 06:20:24;;;;;;;1.45;0.50;;;;;;;6.48;100.00;101234.16;6275065;28;20123;-71
2023/10/15 06:23:26;;;;;;;0.65;0.30;;;;;;;6.58;100.00;101235.59;6275320;28;20049;-70
2023/10/15 06:26:28;;;;;;;1.55;0.30;;;;;;;6.67;100.00;101233.63;6275143;28;20057;-70
2023/10/15 06:29:29;;;;;;;2.72;0.30;;;;;;;6.68;100.00;101251.03;6274928;28;20049;-70
2023/10/15 06:32:32;;;;;;;2.22;0.50;;;;;;;6.58;100.00;101250.41;6279879;28;20063;-70
2023/10/15 06:35:34;;;;;;;0.80;0.50;;;;;;;6.71;100.00;101251.75;6280344;28;20053;-70
2023/10/15 06:38:35;;;;;;;1.67;0.30;;;;;;;6.66;100.00;101260.66;6280155;28;20055;-70
2023/10/15 06:41:37;;;;;;;2.25;1.45;;;;;;;6.83;100.00;101258.41;6279953;28;20049;-70
2023/10/15 06:44:38;;;;;;;0.65;0.40;;;;;;;6.78;100.00;101265.53;6279944;28;20087;-69
2023/10/15 06:47:41;;;;;;;1.02;0.40;;;;;;;6.87;100.00;101273.09;6280109;28;20053;-69
2023/10/15 06:50:43;;;;;;;0.35;0.13;;;;;;;6.99;100.00;101274.47;6279540;28;20048;-70
2023/10/15 06:53:44;;;;;;;1.77;0.65;;;;;;;6.95;100.00;101278.06;6280004;28;20103;-70
2023/10/15 06:56:46;;;;;;;4.32;0.40;;;;;;;6.94;100.00;101278.97;6279792;28;20053;-71
2023/10/15 06:59:49;;;;;;;3.78;0.63;;;;;;;6.95;100.00;101278.06;6279351;28;20045;-70
2023/10/15 07:02:54;;;;;;;3.63;0.45;;;;;;;6.97;100.00;101286.72;6279505;28;20049;-71
2023/10/15 07:05:56;;;;;;;2.28;0.70;;;;;;;7.01;100.00;101294.44;6279525;28;20057;-70
2023/10/15 07:08:59;;;;;;;2.67;1.35;;;;;;;7.06;100.00;101294.28;6279269;28;20445;-69
2023/10/15 07:12:00;;;;;;;3.28;1.55;;;;;;;6.93;100.00;101291.19;6279033;28;20052;-71
2023/10/15 07:15:05;;;;;;;1.52;0.45;;;;;;;7.09;100.00;101295.06;6279292;28;20441;-69
2023/10/15 07:18:08;;;;;;;1.55;1.27;;;;;;;7.19;100.00;101293.03;6279249;28;20066;-70
2023/10/15 07:21:10;;;;;;;17.33;4.55;;;;;;;7.23;100.00;101297.25;6279121;28;20345;-70
2023/10/15 07:24:11;;;;;;;3.38;1.13;;;;;;;7.05;100.00;101306.50;6279143;28;20049;-71
2023/10/15 07:27:13;;;;;;;6.13;1.60;;;;;;;6.94;100.00;101305.94;6279152;28;20052;-71
2023/10/15 07:30:15;;;;;;;1.95;1.15;;;;;;;7.07;100.00;101314.28;6278699;28;20449;-69
2023/10/15 07:33:18;;;;;;;2.00;1.10;;;;;;;7.04;100.00;101311.75;6278973;28;20045;-71
2023/10/15 07:36:19;;;;;;;2.30;1.05;;;;;;;7.12;100.00;101305.41;6278779;28;20326;-69
2023/10/15 07:39:21;;;;;;;2.53;1.60;;;;;;;7.14;100.00;101310.59;6278557;28;20056;-71
2023/10/15 07:42:23;;;;;;;4.43;0.50;;;;;;;7.09;100.00;101315.97;6277581;28;20049;-70
2023/10/15 07:45:26;;;;;;;8.07;3.33;;;;;;;7.20;100.00;101322.63;6278548;28;20471;-70
2023/10/15 07:48:29;;;;;;;7.05;0.70;;;;;;;7.20;100.00;101328.72;6278580;28;20056;-70
2023/10/15 07:51:31;;;;;;;1.65;0.57;;;;;;;7.21;100.00;101337.41;6278021;28;20327;-70
2023/10/15 07:54:32;;;;;;;2.83;1.10;;;;;;;7.20;100.00;101338.31;6278545;28;20048;-70
2023/10/15 07:57:35;;;;;;;3.40;0.40;;;;;;;7.26;100.00;101345.97;6278177;28;20067;-70
2023/10/15 08:00:36;;;;;;;0.70;0.30;;;;;;;7.24;100.00;101346.00;6277949;28;20330;-70
2023/10/15 08:03:39;;;;;;;1.50;0.28;;;;;;;7.26;100.00;101356.41;6278003;28;20049;-70
2023/10/15 08:06:40;;;;;;;1.10;0.50;;;;;;;7.27;100.00;101356.38;6278327;28;20048;-71
2023/10/15 08:09:42;;;;;;;4.75;0.70;;;;;;;7.31;100.00;101362.34;6277966;28;20052;-70
2023/10/15 08:12:43;;;;;;;0.95;0.60;;;;;;;7.40;100.00;101363.84;6277448;28;20045;-70
2023/10/15 08:15:45;;;;;;;0.70;0.45;;;;;;;7.15;100.00;101371.56;6278015;28;20433;-70
2023/10/15 08:18:47;;;;;;;4.07;1.02;;;;;;;7.18;100.00;101377.56;6277863;28;20053;-70
2023/10/15 08:21:49;;;;;;;1.35;0.52;;;;;;;7.28;100.00;101371.16;6277560;28;20448;-71
2023/10/15 08:24:50;;;;;;;4.40;0.70;;;;;;;7.30;100.00;101377.19;6277693;28;20064;-71
2023/10/15 08:27:52;;;;;;;2.60;0.50;;;;;;;7.36;100.00;101381.41;6277547;28;20134;-71
2023/10/15 08:30:54;;;;;;;3.03;0.35;;;;;;;7.54;100.00;101369.50;6277269;28;20048;-70
2023/10/15 08:33:57;;;;;;;0.80;0.50;;;;;;;7.53;100.00;101379.13;6277341;28;20441;-71
2023/10/15 08:36:58;;;;;;;2.08;0.73;;;;;;;7.56;100.00;101378.19;6277407;28;20045;-71
2023/10/15 08:39:59;;;;;;;2.53;1.13;;;;;;;7.54;100.00;101374.72;6277281;28;20053;-71
2023/10/15 08:43:10;;;;;;;2.05;1.13;;;;;;;7.42;100.00;101375.97;6277360;28;20057;-72
2023/10/15 08:46:12;;;;;;;0.68;0.50;;;;;;;7.52;100.00;101377.41;6277149;28;20045;-71
2023/10/15 08:49:16;;;;;;;2.70;0.60;;;;;;;7.55;100.00;101384.31;6276955;28;20334;-71
2023/10/15 08:52:19;;;;;;;2.40;0.60;;;;;;;7.41;100.00;101378.66;6276640;28;20049;-71
2023/10/15 08:55:22;;;;;;;1.55;0.70;;;;;;;7.41;100.00;101379.50;6276805;28;20338;-71
2023/10/15 08:58:26;;;;;;;1.77;0.52;;;;;;;7.46;100.00;101390.69;6276816;28;20042;-71
2023/10/15 09:01:27;;;;;;;1.83;0.47;;;;;;;7.70;100.00;101388.22;6276644;28;20045;-71
2023/10/15 09:04:31;;;;;;;5.05;0.90;;;;;;;7.75;100.00;101389.78;6276716;28;20053;-71
2023/10/15 09:07:33;;;;;;;0.95;0.30;;;;;;;7.72;100.00;101389.91;6276811;28;20136;-71
2023/10/15 09:10:36;;;;;;;1.85;0.60;;;;;;;7.76;100.00;101388.00;6276456;28;20476;-71
2023/10/15 09:13:37;;;;;;;1.95;0.85;;;;;;;7.93;100.00;101395.34;6276823;28;20045;-71
2023/10/15 09:16:39;;;;;;;5.68;0.60;;;;;;;8.06;100.00;101402.75;6276505;28;20049;-71
2023/10/15 09:19:43;;;;;;;0.73;0.43;;;;;;;8.17;100.00;101407.63;6276478;28;20052;-71
2023/10/15 09:22:47;;;;;;;0.77;0.40;;;;;;;8.17;100.00;101407.63;6276136;28;20048;-71
2023/10/15 09:25:53;;;;;;;3.83;0.43;;;;;;;8.25;100.00;101410.00;6276427;28;20080;-71
2023/10/15 09:28:54;;;;;;;2.63;0.68;;;;;;;8.14;100.00;101413.84;6276427;28;20053;-71
2023/10/15 09:31:58;;;;;;;2.38;0.50;;;;;;;8.27;100.00;101418.69;6275642;28;20055;-71
2023/10/15 09:35:02;;;;;;;3.33;0.55;;;;;;;8.35;100.00;101420.09;6276135;28;20136;-71
2023/10/15 09:38:04;;;;;;;6.07;0.65;;;;;;;8.31;100.00;101423.75;6275830;28;20051;-71
2023/10/15 09:41:06;;;;;;;1.73;0.47;;;;;;;8.31;100.00;101434.25;6275481;28;20373;-72
2023/10/15 09:44:14;;;;;;;2.40;0.55;;;;;;;8.43;100.00;101430.38;6275763;28;20045;-71
2023/10/15 09:47:17;;;;;;;2.15;0.52;;;;;;;8.50;100.00;101433.66;6276154;28;20334;-71
2023/10/15 09:50:24;;;;;;;2.20;0.93;;;;;;;8.57;100.00;101438.63;6275304;28;20045;-71
2023/10/15 09:53:27;;;;;;;0.52;0.28;;;;;;;8.62;100.00;101439.31;6275866;28;20128;-71
2023/10/15 09:56:30;;;;;;;0.43;0.40;;;;;;;8.53;100.00;101439.63;6275547;28;20052;-72
2023/10/15 09:59:32;;;;;;;3.35;0.57;;;;;;;8.60;100.00;101442.91;6275601;28;20048;-72
2023/10/15 10:02:40;;;;;;;4.78;0.40;;;;;;;8.69;100.00;101458.31;6275194;28;20045;-72
2023/10/15 10:05:56;;;;;;;2.35;0.80;;;;;;;8.67;100.00;101462.72;6275559;28;20049;-72
2023/10/15 10:09:16;;;;;;;4.85;0.55;;;;;;;8.73;100.00;101464.31;6275637;28;20048;-71
2023/10/15 10:12:32;;;;;;;10.85;0.80;;;;;;;8.73;100.00;101469.56;6275165;28;20048;-71
2023/10/15 10:15:43;;;;;;;0.85;0.60;;;;;;;8.63;100.00;101477.72;6275259;28;20138;-71
2023/10/15 10:18:45;;;;;;;1.80;0.40;;;;;;;8.43;100.00;101484.53;6275413;28;20053;-71
2023/10/15 10:21:48;;;;;;;1.35;0.75;;;;;;;8.06;100.00;101486.50;6274798;28;20441;-71
2023/10/15 10:24:50;;;;;;;3.03;0.82;;;;;;;8.14;100.00;101487.13;6275119;28;20438;-71
2023/10/15 10:28:05;;;;;;;3.63;0.82;;;;;;;8.11;100.00;101483.75;6275096;28;20049;-71
2023/10/15 10:31:08;;;;;;;1.65;0.63;;;;;;;8.09;100.00;101472.47;6274698;28;20076;-71
2023/10/15 10:34:14;;;;;;;2.05;0.80;;;;;;;8.26;100.00;101470.16;6295213;22;20041;-71
2023/10/15 10:37:24;;;;;;;2.45;0.98;;;;;;;8.34;100.00;101470.78;6263001;28;20053;-71
2023/10/15 10:40:47;;;;;;;1.20;0.47;;;;;;;8.39;100.00;101473.28;6249988;28;20057;-74
2023/10/15 10:43:49;;;;;;;1.38;0.52;;;;;;;8.35;100.00;101477.72;6250373;28;20050;-71
2023/10/15 10:46:52;;;;;;;0.88;0.45;;;;;;;8.46;100.00;101487.91;6250284;28;20469;-71
2023/10/15 10:49:56;;;;;;;2.10;0.75;;;;;;;8.41;100.00;101476.72;6250197;28;20041;-71
2023/10/15 10:53:13;;;;;;;2.30;0.30;;;;;;;8.39;100.00;101478.53;6249978;28;20049;-70
2023/10/15 10:56:16;;;;;;;3.70;0.40;;;;;;;8.50;100.00;101483.44;6250349;28;20056;-71
2023/10/15 10:59:18;;;;;;;2.38;0.32;;;;;;;8.62;100.00;101483.84;6249966;28;20476;-71
2023/10/15 11:02:22;;;;;;;1.35;0.45;;;;;;;8.63;100.00;101482.97;6249969;28;20053;-71
2023/10/15 11:05:25;;;;;;;0.52;0.30;;;;;;;8.81;100.00;101480.59;6249987;28;20164;-71
2023/10/15 11:08:27;;;;;;;2.63;0.30;;;;;;;8.80;100.00;101478.91;6250097;28;20054;-70
2023/10/15 11:11:30;;;;;;;5.43;0.52;;;;;;;8.97;100.00;101473.09;6249605;28;20045;-71
2023/10/15 11:14:31;;;;;;;4.07;1.02;;;;;;;9.25;100.00;101478.19;6250171;28;20061;-71
2023/10/15 11:17:33;;;;;;;0.45;0.35;;;;;;;9.27;100.00;101473.78;6251546;28;20053;-71
2023/10/15 11:20:35;;;;;;;0.20;0.20;;;;;;;9.45;100.00;101466.97;6254500;28;20056;-72
2023/10/15 11:23:38;;;;;;;2.50;0.65;;;;;;;9.74;100.00;101471.13;6254375;28;20053;-71
2023/10/15 11:26:42;;;;;;;0.43;0.30;;;;;;;9.77;100.00;101476.28;6254597;28;20108;-71
2023/10/15 11:29:44;;;;;;;0.13;0.13;;;;;;;9.93;100.00;101480.00;6254347;28;20104;-71
2023/10/15 11:32:46;;;;;;;0.30;0.30;;;;;;;10.02;100.00;101478.81;6254040;28;20076;-71
2023/10/15 11:35:48;;;;;;;0.88;0.40;;;;;;;9.98;100.00;101499.06;6254294;28;20050;-70
2023/10/15 11:38:52;;;;;;;1.42;0.47;;;;;;;9.83;100.00;101487.38;6254019;28;20049;-72
2023/10/15 11:41:55;;;;;;;2.42;0.57;;;;;;;9.75;100.00;101497.31;6253826;28;20216;-71
2023/10/15 11:44:58;;;;;;;3.90;0.28;;;;;;;9.57;100.00;101488.38;6253943;28;20049;-72
2023/10/15 11:47:59;;;;;;;1.40;0.32;;;;;;;9.70;100.00;101480.91;6253942;28;20050;-71
2023/10/15 11:51:05;;;;;;;0.90;0.30;;;;;;;9.69;100.00;101492.31;6253618;28;20049;-71
2023/10/15 11:54:09;;;;;;;1.75;0.47;;;;;;;9.59;100.00;101494.44;6253845;28;20053;-71
2023/10/15 11:57:16;;;;;;;0.50;0.35;;;;;;;9.32;100.00;101491.06;6253578;28;20342;-71
2023/10/15 12:00:31;;;;;;;0.68;0.50;;;;;;;9.40;100.00;101490.75;6253472;28;20050;-72
2023/10/15 12:03:32;;;;;;;2.08;0.50;;;;;;;9.97;100.00;101480.75;6253423;28;20053;-71
2023/10/15 12:06:35;;;;;;;1.27;0.82;;;;;;;10.49;100.00;101505.84;6253404;28;20061;-71
2023/10/15 12:09:39;;;;;;;0.50;0.50;;;;;;;10.60;100.00;101502.75;6253212;28;20422;-71
2023/10/15 12:12:41;;;;;;;1.10;0.38;;;;;;;10.86;100.00;101497.28;6253528;28;20052;-71
2023/10/15 12:15:42;;;;;;;1.58;0.40;;;;;;;10.82;100.00;101502.72;6253339;28;20049;-72
2023/10/15 12:18:44;;;;;;;1.15;0.55;;;;;;;10.99;100.00;101494.97;6253445;28;20065;-71
2023/10/15 12:21:45;;;;;;;2.08;0.50;;;;;;;11.03;100.00;101501.78;6252910;28;20041;-71
2023/10/15 12:24:48;;;;;;;1.15;0.52;;;;;;;11.01;100.00;101508.91;6252991;28;20056;-71
2023/10/15 12:27:50;;;;;;;1.50;0.30;;;;;;;11.12;100.00;101511.06;6252671;28;20060;-71
2023/10/15 12:30:53;;;;;;;1.25;0.35;;;;;;;10.49;100.00;101504.97;6252604;28;20438;-70
2023/10/15 12:33:56;;;;;;;0.30;0.20;;;;;;;10.33;100.00;101500.34;6252548;28;20042;-71
2023/10/15 12:36:57;;;;;;;0.30;0.20;;;;;;;10.30;100.00;101504.84;6252615;28;20348;-71
2023/10/15 12:40:00;;;;;;;4.47;0.38;;;;;;;10.23;100.00;101506.84;6252635;28;20053;-70
2023/10/15 12:43:08;;;;;;;0.57;0.30;;;;;;;10.18;100.00;101500.94;6252512;28;20082;-70
2023/10/15 12:46:09;;;;;;;5.05;0.50;;;;;;;9.94;100.00;101510.59;6252712;28;20045;-71
2023/10/15 12:49:11;;;;;;;0.70;0.35;;;;;;;9.98;100.00;101500.84;6252388;28;20049;-71
2023/10/15 12:52:12;;;;;;;0.38;0.20;;;;;;;10.48;100.00;101521.66;6252216;28;20054;-71
2023/10/15 12:55:17;;;;;;;1.38;0.30;;;;;;;10.87;100.00;101520.00;6252338;28;20432;-71
2023/10/15 12:58:19;;;;;;;2.38;0.45;;;;;;;11.08;100.00;101512.13;6252390;28;20052;-71
2023/10/15 13:01:20;;;;;;;3.83;0.77;;;;;;;11.14;100.00;101531.13;6252025;28;20053;-71
2023/10/15 13:04:22;;;;;;;2.00;0.47;;;;;;;11.32;100.00;101533.91;6251982;28;20050;-71
2023/10/15 13:07:24;;;;;;;1.08;0.40;;;;;;;11.23;100.00;101540.41;6252116;28;20504;-71
2023/10/15 13:10:27;;;;;;;1.05;0.30;;;;;;;11.27;100.00;101536.72;6251638;28;20355;-72
2023/10/15 13:13:29;;;;;;;3.85;0.30;;;;;;;11.47;100.00;101530.56;6251907;28;20134;-70
2023/10/15 13:16:30;;;;;;;1.13;0.35;;;;;;;11.35;100.00;101534.59;6251825;28;20049;-71
2023/10/15 13:19:32;;;;;;;0.95;0.30;;;;;;;11.46;100.00;101530.66;6251761;28;20057;-71
2023/10/15 13:22:33;;;;;;;0.73;0.38;;;;;;;11.48;100.00;101532.28;6251432;28;20049;-70
2023/10/15 13:25:36;;;;;;;5.50;0.73;;;;;;;11.42;100.00;101525.53;6251805;28;20061;-70
2023/10/15 13:28:39;;;;;;;0.55;0.28;;;;;;;11.50;100.00;101533.09;6251531;28;20446;-71
2023/10/15 13:31:41;;;;;;;2.67;1.00;;;;;;;11.28;100.00;101550.75;6251147;28;20184;-71
2023/10/15 13:34:42;;;;;;;3.15;1.75;;;;;;;11.03;100.00;101543.03;6251463;28;20088;-73
2023/10/15 13:37:46;;;;;;;2.90;0.40;;;;;;;11.45;100.00;101540.34;6251219;28;20351;-71
2023/10/15 13:40:49;;;;;;;3.65;1.92;;;;;;;11.36;100.00;101551.25;6250444;28;20050;-71
2023/10/15 13:43:50;;;;;;;0.73;0.20;;;;;;;11.72;100.00;101556.69;6251338;28;20346;-71
2023/10/15 13:46:53;;;;;;;0.57;0.30;;;;;;;11.57;100.00;101547.66;6251314;28;20056;-72
2023/10/15 13:49:54;;;;;;;1.95;0.55;;;;;;;11.78;100.00;101548.50;6250853;28;20045;-71
2023/10/15 13:52:56;;;;;;;1.80;0.93;;;;;;;11.66;100.00;101556.94;6251467;28;20049;-72
2023/10/15 13:56:00;;;;;;;4.00;1.60;;;;;;;11.78;100.00;101550.28;6250903;28;20350;-71
2023/10/15 13:59:01;;;;;;;3.60;1.80;;;;;;;11.50;100.00;101559.41;6250763;28;20445;-71
2023/10/15 14:02:06;;;;;;;0.82;0.68;;;;;;;11.38;100.00;101559.94;6250584;28;20049;-72
2023/10/15 14:05:09;;;;;;;3.38;1.02;;;;;;;11.33;100.00;101568.03;6251010;28;20054;-71
2023/10/15 14:08:10;;;;;;;1.95;0.30;;;;;;;11.03;100.00;101561.44;6250733;28;20050;-72
2023/10/15 14:11:13;;;;;;;0.85;0.30;;;;;;;10.77;100.00;101566.03;6250473;28;20053;-71